sensor_id;sensor_type;location;lat;lon;timestamp;P1;durP1;ratioP1;P2;durP2;ratioP2
43998;SDS011;51319;52.162;5.302;2022-08-19T00:01:23;5.38;;;4.90;;
43998;SDS011;51319;52.162;5.302;2022-08-19T00:03:59;6.68;;;4.95;;
43998;SDS011;51319;52.162;5.302;2022-08-19T00:06:28;6.13;;;5.22;;
43998;SDS011;51319;52.162;5.302;2022-08-19T00:08:56;8.82;;;5.13;;
43998;SDS011;51319;52.162;5.302;2022-08-19T00:11:23;8.75;;;4.53;;
43998;SDS011;51319;52.162;5.302;2022-08-19T00:13:52;6.80;;;4.72;;
43998;SDS011;51319;52.162;5.302;2022-08-19T00:16:23;9.98;;;5.65;;
43998;SDS011;51319;52.162;5.302;2022-08-19T00:18:52;6.40;;;5.85;;
43998;SDS011;51319;52.162;5.302;2022-08-19T00:21:21;5.75;;;5.10;;
43998;SDS011;51319;52.162;5.302;2022-08-19T00:23:48;4.93;;;4.50;;
43998;SDS011;51319;52.162;5.302;2022-08-19T00:26:14;5.85;;;3.85;;
43998;SDS011;51319;52.162;5.302;2022-08-19T00:28:41;9.48;;;4.28;;
43998;SDS011;51319;52.162;5.302;2022-08-19T00:31:08;5.43;;;4.00;;
43998;SDS011;51319;52.162;5.302;2022-08-19T00:33:34;7.85;;;4.80;;
43998;SDS011;51319;52.162;5.302;2022-08-19T00:36:03;6.75;;;4.38;;
43998;SDS011;51319;52.162;5.302;2022-08-19T00:38:32;4.57;;;4.18;;
43998;SDS011;51319;52.162;5.302;2022-08-19T00:41:03;4.97;;;4.30;;
43998;SDS011;51319;52.162;5.302;2022-08-19T00:43:31;4.70;;;4.30;;
43998;SDS011;51319;52.162;5.302;2022-08-19T00:45:57;4.80;;;4.28;;
43998;SDS011;51319;52.162;5.302;2022-08-19T00:48:24;4.70;;;4.30;;
43998;SDS011;51319;52.162;5.302;2022-08-19T00:50:51;4.72;;;4.10;;
43998;SDS011;51319;52.162;5.302;2022-08-19T00:53:20;10.02;;;5.07;;
43998;SDS011;51319;52.162;5.302;2022-08-19T00:55:50;5.43;;;4.88;;
43998;SDS011;51319;52.162;5.302;2022-08-19T00:58:19;5.75;;;4.13;;
43998;SDS011;51319;52.162;5.302;2022-08-19T01:00:47;5.13;;;4.50;;
43998;SDS011;51319;52.162;5.302;2022-08-19T01:03:15;5.25;;;4.72;;
43998;SDS011;51319;52.162;5.302;2022-08-19T01:05:44;10.52;;;5.10;;
43998;SDS011;51319;52.162;5.302;2022-08-19T01:08:13;5.22;;;4.70;;
43998;SDS011;51319;52.162;5.302;2022-08-19T01:10:42;6.90;;;4.32;;
43998;SDS011;51319;52.162;5.302;2022-08-19T01:13:12;5.80;;;4.40;;
43998;SDS011;51319;52.162;5.302;2022-08-19T01:15:42;5.60;;;3.83;;
43998;SDS011;51319;52.162;5.302;2022-08-19T01:18:15;6.63;;;4.28;;
43998;SDS011;51319;52.162;5.302;2022-08-19T01:20:43;7.10;;;4.10;;
43998;SDS011;51319;52.162;5.302;2022-08-19T01:23:10;4.50;;;4.10;;
43998;SDS011;51319;52.162;5.302;2022-08-19T01:25:42;5.25;;;3.90;;
43998;SDS011;51319;52.162;5.302;2022-08-19T01:28:17;4.95;;;4.43;;
43998;SDS011;51319;52.162;5.302;2022-08-19T01:33:33;5.78;;;4.20;;
43998;SDS011;51319;52.162;5.302;2022-08-19T01:36:10;4.60;;;4.20;;
43998;SDS011;51319;52.162;5.302;2022-08-19T01:38:41;4.70;;;3.72;;
43998;SDS011;51319;52.162;5.302;2022-08-19T01:41:10;5.22;;;3.80;;
43998;SDS011;51319;52.162;5.302;2022-08-19T01:43:37;7.05;;;4.00;;
43998;SDS011;51319;52.162;5.302;2022-08-19T01:46:24;4.65;;;3.10;;
43998;SDS011;51319;52.162;5.302;2022-08-19T01:48:50;6.30;;;3.95;;
43998;SDS011;51319;52.162;5.302;2022-08-19T01:51:16;4.18;;;3.75;;
43998;SDS011;51319;52.162;5.302;2022-08-19T01:53:45;8.65;;;4.43;;
43998;SDS011;51319;52.162;5.302;2022-08-19T01:56:13;5.95;;;4.50;;
43998;SDS011;51319;52.162;5.302;2022-08-19T01:58:41;8.05;;;4.40;;
43998;SDS011;51319;52.162;5.302;2022-08-19T02:01:16;6.15;;;3.97;;
43998;SDS011;51319;52.162;5.302;2022-08-19T02:03:44;5.75;;;4.03;;
43998;SDS011;51319;52.162;5.302;2022-08-19T02:06:11;4.40;;;4.00;;
43998;SDS011;51319;52.162;5.302;2022-08-19T02:08:38;4.40;;;4.10;;
43998;SDS011;51319;52.162;5.302;2022-08-19T02:11:05;8.20;;;4.55;;
43998;SDS011;51319;52.162;5.302;2022-08-19T02:13:34;5.97;;;4.05;;
43998;SDS011;51319;52.162;5.302;2022-08-19T02:16:01;4.60;;;4.00;;
43998;SDS011;51319;52.162;5.302;2022-08-19T02:18:29;6.15;;;4.78;;
43998;SDS011;51319;52.162;5.302;2022-08-19T02:20:55;4.75;;;4.35;;
43998;SDS011;51319;52.162;5.302;2022-08-19T02:23:21;5.07;;;4.45;;
43998;SDS011;51319;52.162;5.302;2022-08-19T02:25:48;6.97;;;4.20;;
43998;SDS011;51319;52.162;5.302;2022-08-19T02:28:14;5.72;;;4.45;;
43998;SDS011;51319;52.162;5.302;2022-08-19T02:30:45;6.97;;;6.05;;
43998;SDS011;51319;52.162;5.302;2022-08-19T02:33:12;9.95;;;6.78;;
43998;SDS011;51319;52.162;5.302;2022-08-19T02:35:42;14.63;;;5.63;;
43998;SDS011;51319;52.162;5.302;2022-08-19T02:38:12;7.30;;;4.82;;
43998;SDS011;51319;52.162;5.302;2022-08-19T02:40:59;6.43;;;4.72;;
43998;SDS011;51319;52.162;5.302;2022-08-19T02:43:28;8.93;;;5.53;;
43998;SDS011;51319;52.162;5.302;2022-08-19T02:45:59;7.30;;;6.38;;
43998;SDS011;51319;52.162;5.302;2022-08-19T02:48:25;11.40;;;6.13;;
43998;SDS011;51319;52.162;5.302;2022-08-19T02:50:52;10.05;;;6.90;;
43998;SDS011;51319;52.162;5.302;2022-08-19T02:53:24;10.50;;;6.63;;
43998;SDS011;51319;52.162;5.302;2022-08-19T02:55:53;9.05;;;6.47;;
43998;SDS011;51319;52.162;5.302;2022-08-19T02:58:20;8.45;;;5.60;;
43998;SDS011;51319;52.162;5.302;2022-08-19T03:00:49;7.38;;;5.97;;
43998;SDS011;51319;52.162;5.302;2022-08-19T03:03:18;11.87;;;7.87;;
43998;SDS011;51319;52.162;5.302;2022-08-19T03:05:45;10.45;;;7.07;;
43998;SDS011;51319;52.162;5.302;2022-08-19T03:08:21;14.20;;;7.63;;
43998;SDS011;51319;52.162;5.302;2022-08-19T03:10:49;9.15;;;7.25;;
43998;SDS011;51319;52.162;5.302;2022-08-19T03:13:18;8.05;;;7.20;;
43998;SDS011;51319;52.162;5.302;2022-08-19T03:15:45;11.85;;;8.52;;
43998;SDS011;51319;52.162;5.302;2022-08-19T03:18:13;9.27;;;8.38;;
43998;SDS011;51319;52.162;5.302;2022-08-19T03:20:41;12.05;;;7.82;;
43998;SDS011;51319;52.162;5.302;2022-08-19T03:23:13;10.18;;;8.07;;
43998;SDS011;51319;52.162;5.302;2022-08-19T03:25:47;9.45;;;8.40;;
43998;SDS011;51319;52.162;5.302;2022-08-19T03:28:35;10.32;;;8.57;;
43998;SDS011;51319;52.162;5.302;2022-08-19T03:31:06;9.93;;;7.90;;
43998;SDS011;51319;52.162;5.302;2022-08-19T03:33:55;8.98;;;8.02;;
43998;SDS011;51319;52.162;5.302;2022-08-19T03:36:23;10.23;;;8.13;;
43998;SDS011;51319;52.162;5.302;2022-08-19T03:38:55;13.77;;;8.45;;
43998;SDS011;51319;52.162;5.302;2022-08-19T03:41:29;8.23;;;7.43;;
43998;SDS011;51319;52.162;5.302;2022-08-19T03:44:10;16.77;;;8.93;;
43998;SDS011;51319;52.162;5.302;2022-08-19T03:46:43;7.97;;;6.53;;
43998;SDS011;51319;52.162;5.302;2022-08-19T03:49:11;9.25;;;6.68;;
43998;SDS011;51319;52.162;5.302;2022-08-19T03:51:40;8.50;;;7.13;;
43998;SDS011;51319;52.162;5.302;2022-08-19T03:54:08;7.72;;;6.65;;
43998;SDS011;51319;52.162;5.302;2022-08-19T03:56:37;9.15;;;6.78;;
43998;SDS011;51319;52.162;5.302;2022-08-19T03:59:07;9.48;;;8.35;;
43998;SDS011;51319;52.162;5.302;2022-08-19T04:01:36;10.73;;;8.73;;
43998;SDS011;51319;52.162;5.302;2022-08-19T04:04:06;14.10;;;8.27;;
43998;SDS011;51319;52.162;5.302;2022-08-19T04:06:35;8.35;;;7.55;;
43998;SDS011;51319;52.162;5.302;2022-08-19T04:09:06;11.70;;;7.10;;
43998;SDS011;51319;52.162;5.302;2022-08-19T04:11:35;11.70;;;7.97;;
43998;SDS011;51319;52.162;5.302;2022-08-19T04:14:18;13.40;;;7.72;;
43998;SDS011;51319;52.162;5.302;2022-08-19T04:16:47;8.65;;;7.53;;
43998;SDS011;51319;52.162;5.302;2022-08-19T04:19:15;11.13;;;7.70;;
43998;SDS011;51319;52.162;5.302;2022-08-19T04:21:46;9.80;;;6.80;;
43998;SDS011;51319;52.162;5.302;2022-08-19T04:24:14;11.20;;;7.82;;
43998;SDS011;51319;52.162;5.302;2022-08-19T04:26:41;10.50;;;7.43;;
43998;SDS011;51319;52.162;5.302;2022-08-19T04:29:09;12.43;;;7.82;;
43998;SDS011;51319;52.162;5.302;2022-08-19T04:31:38;10.02;;;7.45;;
43998;SDS011;51319;52.162;5.302;2022-08-19T04:34:07;9.18;;;7.28;;
43998;SDS011;51319;52.162;5.302;2022-08-19T04:36:37;8.90;;;8.00;;
43998;SDS011;51319;52.162;5.302;2022-08-19T04:39:07;8.38;;;7.07;;
43998;SDS011;51319;52.162;5.302;2022-08-19T04:41:35;16.27;;;9.30;;
43998;SDS011;51319;52.162;5.302;2022-08-19T04:44:20;14.35;;;10.10;;
43998;SDS011;51319;52.162;5.302;2022-08-19T04:46:48;15.30;;;9.73;;
43998;SDS011;51319;52.162;5.302;2022-08-19T04:49:20;16.23;;;9.35;;
43998;SDS011;51319;52.162;5.302;2022-08-19T04:51:49;16.17;;;10.43;;
43998;SDS011;51319;52.162;5.302;2022-08-19T04:54:18;15.35;;;10.48;;
43998;SDS011;51319;52.162;5.302;2022-08-19T04:57:04;15.35;;;9.98;;
43998;SDS011;51319;52.162;5.302;2022-08-19T04:59:32;12.50;;;9.43;;
43998;SDS011;51319;52.162;5.302;2022-08-19T05:01:59;14.65;;;9.55;;
43998;SDS011;51319;52.162;5.302;2022-08-19T05:04:25;12.27;;;9.13;;
43998;SDS011;51319;52.162;5.302;2022-08-19T05:06:51;15.02;;;9.98;;
43998;SDS011;51319;52.162;5.302;2022-08-19T05:09:26;13.35;;;9.95;;
43998;SDS011;51319;52.162;5.302;2022-08-19T05:12:13;19.55;;;11.98;;
43998;SDS011;51319;52.162;5.302;2022-08-19T05:14:39;19.38;;;13.43;;
43998;SDS011;51319;52.162;5.302;2022-08-19T05:17:06;24.02;;;12.45;;
43998;SDS011;51319;52.162;5.302;2022-08-19T05:19:52;21.77;;;12.77;;
43998;SDS011;51319;52.162;5.302;2022-08-19T05:22:38;18.08;;;12.52;;
43998;SDS011;51319;52.162;5.302;2022-08-19T05:25:07;20.00;;;13.18;;
43998;SDS011;51319;52.162;5.302;2022-08-19T05:27:39;19.65;;;13.40;;
43998;SDS011;51319;52.162;5.302;2022-08-19T05:30:07;26.55;;;17.17;;
43998;SDS011;51319;52.162;5.302;2022-08-19T05:32:34;32.97;;;17.80;;
43998;SDS011;51319;52.162;5.302;2022-08-19T05:35:00;34.03;;;20.33;;
43998;SDS011;51319;52.162;5.302;2022-08-19T05:37:26;30.48;;;19.17;;
43998;SDS011;51319;52.162;5.302;2022-08-19T05:39:55;38.58;;;19.88;;
43998;SDS011;51319;52.162;5.302;2022-08-19T05:42:21;44.30;;;26.63;;
43998;SDS011;51319;52.162;5.302;2022-08-19T05:44:48;50.35;;;28.20;;
43998;SDS011;51319;52.162;5.302;2022-08-19T05:47:16;64.00;;;33.40;;
43998;SDS011;51319;52.162;5.302;2022-08-19T05:49:45;52.70;;;30.83;;
43998;SDS011;51319;52.162;5.302;2022-08-19T05:52:12;52.42;;;30.67;;
43998;SDS011;51319;52.162;5.302;2022-08-19T05:54:43;55.78;;;31.05;;
43998;SDS011;51319;52.162;5.302;2022-08-19T05:57:16;51.00;;;30.55;;
43998;SDS011;51319;52.162;5.302;2022-08-19T05:59:43;51.83;;;30.85;;
43998;SDS011;51319;52.162;5.302;2022-08-19T06:02:14;57.92;;;32.60;;
43998;SDS011;51319;52.162;5.302;2022-08-19T06:04:40;49.33;;;29.67;;
43998;SDS011;51319;52.162;5.302;2022-08-19T06:07:09;51.35;;;30.95;;
43998;SDS011;51319;52.162;5.302;2022-08-19T06:09:38;51.92;;;30.90;;
43998;SDS011;51319;52.162;5.302;2022-08-19T06:12:05;53.53;;;31.23;;
43998;SDS011;51319;52.162;5.302;2022-08-19T06:14:33;55.03;;;30.90;;
43998;SDS011;51319;52.162;5.302;2022-08-19T06:17:06;46.72;;;31.13;;
43998;SDS011;51319;52.162;5.302;2022-08-19T06:19:33;51.88;;;32.75;;
43998;SDS011;51319;52.162;5.302;2022-08-19T06:22:06;50.50;;;33.47;;
43998;SDS011;51319;52.162;5.302;2022-08-19T06:24:33;51.45;;;34.38;;
43998;SDS011;51319;52.162;5.302;2022-08-19T06:27:00;51.17;;;34.03;;
43998;SDS011;51319;52.162;5.302;2022-08-19T06:29:27;52.70;;;34.97;;
43998;SDS011;51319;52.162;5.302;2022-08-19T06:31:56;54.08;;;34.47;;
43998;SDS011;51319;52.162;5.302;2022-08-19T06:34:25;51.20;;;34.25;;
43998;SDS011;51319;52.162;5.302;2022-08-19T06:36:53;54.95;;;39.10;;
43998;SDS011;51319;52.162;5.302;2022-08-19T06:39:22;51.88;;;33.58;;
43998;SDS011;51319;52.162;5.302;2022-08-19T06:41:53;52.50;;;35.38;;
43998;SDS011;51319;52.162;5.302;2022-08-19T06:44:25;58.90;;;36.67;;
43998;SDS011;51319;52.162;5.302;2022-08-19T06:46:52;64.22;;;37.20;;
43998;SDS011;51319;52.162;5.302;2022-08-19T06:49:20;62.67;;;37.70;;
43998;SDS011;51319;52.162;5.302;2022-08-19T06:51:47;70.07;;;39.80;;
43998;SDS011;51319;52.162;5.302;2022-08-19T06:54:17;69.22;;;41.03;;
43998;SDS011;51319;52.162;5.302;2022-08-19T06:56:45;72.18;;;41.03;;
43998;SDS011;51319;52.162;5.302;2022-08-19T06:59:13;70.88;;;40.28;;
43998;SDS011;51319;52.162;5.302;2022-08-19T07:01:51;71.97;;;38.95;;
43998;SDS011;51319;52.162;5.302;2022-08-19T07:04:20;70.05;;;40.35;;
43998;SDS011;51319;52.162;5.302;2022-08-19T07:06:50;74.43;;;41.70;;
43998;SDS011;51319;52.162;5.302;2022-08-19T07:09:23;79.55;;;43.92;;
43998;SDS011;51319;52.162;5.302;2022-08-19T07:11:51;80.55;;;44.50;;
43998;SDS011;51319;52.162;5.302;2022-08-19T07:14:19;89.20;;;46.15;;
43998;SDS011;51319;52.162;5.302;2022-08-19T07:16:50;77.95;;;44.15;;
43998;SDS011;51319;52.162;5.302;2022-08-19T07:19:19;86.40;;;44.72;;
43998;SDS011;51319;52.162;5.302;2022-08-19T07:21:49;83.38;;;46.22;;
43998;SDS011;51319;52.162;5.302;2022-08-19T07:24:20;79.40;;;44.40;;
43998;SDS011;51319;52.162;5.302;2022-08-19T07:26:50;83.40;;;44.63;;
43998;SDS011;51319;52.162;5.302;2022-08-19T07:29:18;83.60;;;47.58;;
43998;SDS011;51319;52.162;5.302;2022-08-19T07:31:51;83.35;;;45.88;;
43998;SDS011;51319;52.162;5.302;2022-08-19T07:34:19;77.22;;;43.55;;
43998;SDS011;51319;52.162;5.302;2022-08-19T07:36:45;82.50;;;46.08;;
43998;SDS011;51319;52.162;5.302;2022-08-19T07:39:13;77.85;;;42.17;;
43998;SDS011;51319;52.162;5.302;2022-08-19T07:41:42;75.60;;;41.80;;
43998;SDS011;51319;52.162;5.302;2022-08-19T07:44:09;75.05;;;38.95;;
43998;SDS011;51319;52.162;5.302;2022-08-19T07:46:39;69.30;;;40.47;;
43998;SDS011;51319;52.162;5.302;2022-08-19T07:49:07;68.05;;;40.85;;
43998;SDS011;51319;52.162;5.302;2022-08-19T07:51:39;69.38;;;40.17;;
43998;SDS011;51319;52.162;5.302;2022-08-19T07:54:05;75.40;;;41.17;;
43998;SDS011;51319;52.162;5.302;2022-08-19T07:56:31;65.55;;;40.78;;
43998;SDS011;51319;52.162;5.302;2022-08-19T07:58:57;66.43;;;38.33;;
43998;SDS011;51319;52.162;5.302;2022-08-19T08:01:24;71.63;;;41.25;;
43998;SDS011;51319;52.162;5.302;2022-08-19T08:03:52;67.25;;;40.10;;
43998;SDS011;51319;52.162;5.302;2022-08-19T08:06:37;60.55;;;37.40;;
43998;SDS011;51319;52.162;5.302;2022-08-19T08:09:24;60.47;;;37.13;;
43998;SDS011;51319;52.162;5.302;2022-08-19T08:11:54;55.08;;;36.20;;
43998;SDS011;51319;52.162;5.302;2022-08-19T08:14:31;57.65;;;35.92;;
43998;SDS011;51319;52.162;5.302;2022-08-19T08:17:01;48.92;;;33.58;;
43998;SDS011;51319;52.162;5.302;2022-08-19T08:19:36;52.42;;;33.92;;
43998;SDS011;51319;52.162;5.302;2022-08-19T08:22:03;53.45;;;34.47;;
43998;SDS011;51319;52.162;5.302;2022-08-19T08:24:31;55.95;;;36.17;;
43998;SDS011;51319;52.162;5.302;2022-08-19T08:26:59;52.28;;;32.85;;
43998;SDS011;51319;52.162;5.302;2022-08-19T08:29:26;51.65;;;33.35;;
43998;SDS011;51319;52.162;5.302;2022-08-19T08:32:00;51.33;;;34.17;;
43998;SDS011;51319;52.162;5.302;2022-08-19T08:34:27;44.17;;;32.95;;
43998;SDS011;51319;52.162;5.302;2022-08-19T08:36:54;41.35;;;30.15;;
43998;SDS011;51319;52.162;5.302;2022-08-19T08:39:20;48.38;;;29.13;;
43998;SDS011;51319;52.162;5.302;2022-08-19T08:41:56;41.13;;;27.67;;
43998;SDS011;51319;52.162;5.302;2022-08-19T08:44:55;43.63;;;29.20;;
43998;SDS011;51319;52.162;5.302;2022-08-19T08:47:30;33.30;;;25.08;;
43998;SDS011;51319;52.162;5.302;2022-08-19T08:50:02;35.13;;;27.38;;
43998;SDS011;51319;52.162;5.302;2022-08-19T08:52:33;33.22;;;24.98;;
43998;SDS011;51319;52.162;5.302;2022-08-19T08:55:07;30.55;;;23.50;;
43998;SDS011;51319;52.162;5.302;2022-08-19T09:00:15;32.00;;;22.33;;
43998;SDS011;51319;52.162;5.302;2022-08-19T09:05:16;33.38;;;24.92;;
43998;SDS011;51319;52.162;5.302;2022-08-19T09:10:38;27.95;;;22.08;;
43998;SDS011;51319;52.162;5.302;2022-08-19T09:16:16;30.77;;;23.08;;
43998;SDS011;51319;52.162;5.302;2022-08-19T09:18:50;32.95;;;24.73;;
43998;SDS011;51319;52.162;5.302;2022-08-19T09:21:20;27.90;;;23.30;;
43998;SDS011;51319;52.162;5.302;2022-08-19T09:23:58;28.65;;;22.83;;
43998;SDS011;51319;52.162;5.302;2022-08-19T09:26:28;26.88;;;24.02;;
43998;SDS011;51319;52.162;5.302;2022-08-19T09:29:13;27.23;;;21.95;;
43998;SDS011;51319;52.162;5.302;2022-08-19T09:31:43;29.73;;;20.05;;
43998;SDS011;51319;52.162;5.302;2022-08-19T09:34:09;27.23;;;21.05;;
43998;SDS011;51319;52.162;5.302;2022-08-19T09:36:47;21.33;;;19.00;;
43998;SDS011;51319;52.162;5.302;2022-08-19T09:39:20;23.02;;;17.48;;
43998;SDS011;51319;52.162;5.302;2022-08-19T09:41:47;21.73;;;18.25;;
43998;SDS011;51319;52.162;5.302;2022-08-19T09:44:15;23.05;;;18.15;;
43998;SDS011;51319;52.162;5.302;2022-08-19T09:46:43;20.38;;;15.93;;
43998;SDS011;51319;52.162;5.302;2022-08-19T09:49:09;23.00;;;17.25;;
43998;SDS011;51319;52.162;5.302;2022-08-19T09:51:38;22.02;;;14.50;;
43998;SDS011;51319;52.162;5.302;2022-08-19T09:54:04;19.77;;;13.90;;
43998;SDS011;51319;52.162;5.302;2022-08-19T09:56:32;16.58;;;12.38;;
43998;SDS011;51319;52.162;5.302;2022-08-19T09:58:59;19.65;;;14.20;;
43998;SDS011;51319;52.162;5.302;2022-08-19T10:01:27;26.25;;;14.30;;
43998;SDS011;51319;52.162;5.302;2022-08-19T10:03:56;21.52;;;13.40;;
43998;SDS011;51319;52.162;5.302;2022-08-19T10:06:27;17.17;;;13.70;;
43998;SDS011;51319;52.162;5.302;2022-08-19T10:09:11;20.40;;;14.63;;
43998;SDS011;51319;52.162;5.302;2022-08-19T10:11:39;22.83;;;14.63;;
43998;SDS011;51319;52.162;5.302;2022-08-19T10:14:17;18.83;;;15.23;;
43998;SDS011;51319;52.162;5.302;2022-08-19T10:16:47;27.10;;;16.88;;
43998;SDS011;51319;52.162;5.302;2022-08-19T10:19:14;19.05;;;14.25;;
43998;SDS011;51319;52.162;5.302;2022-08-19T10:21:50;19.70;;;16.30;;
43998;SDS011;51319;52.162;5.302;2022-08-19T10:24:18;21.75;;;15.40;;
43998;SDS011;51319;52.162;5.302;2022-08-19T10:26:46;22.77;;;13.80;;
43998;SDS011;51319;52.162;5.302;2022-08-19T10:29:22;25.00;;;16.25;;
43998;SDS011;51319;52.162;5.302;2022-08-19T10:32:02;19.77;;;14.35;;
43998;SDS011;51319;52.162;5.302;2022-08-19T10:34:38;20.90;;;14.30;;
43998;SDS011;51319;52.162;5.302;2022-08-19T10:37:14;25.50;;;16.25;;
43998;SDS011;51319;52.162;5.302;2022-08-19T10:39:53;18.65;;;13.38;;
43998;SDS011;51319;52.162;5.302;2022-08-19T10:42:20;17.52;;;14.07;;
43998;SDS011;51319;52.162;5.302;2022-08-19T10:44:47;18.10;;;14.57;;
43998;SDS011;51319;52.162;5.302;2022-08-19T10:47:17;17.88;;;15.23;;
43998;SDS011;51319;52.162;5.302;2022-08-19T10:49:51;18.33;;;13.93;;
43998;SDS011;51319;52.162;5.302;2022-08-19T10:52:41;19.05;;;13.32;;
43998;SDS011;51319;52.162;5.302;2022-08-19T10:55:16;16.88;;;12.65;;
43998;SDS011;51319;52.162;5.302;2022-08-19T10:58:14;21.13;;;12.20;;
43998;SDS011;51319;52.162;5.302;2022-08-19T11:00:42;20.23;;;15.30;;
43998;SDS011;51319;52.162;5.302;2022-08-19T11:03:16;18.63;;;14.73;;
43998;SDS011;51319;52.162;5.302;2022-08-19T11:05:42;19.80;;;13.25;;
43998;SDS011;51319;52.162;5.302;2022-08-19T11:08:10;21.42;;;14.93;;
43998;SDS011;51319;52.162;5.302;2022-08-19T11:10:49;20.65;;;15.35;;
43998;SDS011;51319;52.162;5.302;2022-08-19T11:13:22;15.90;;;13.52;;
43998;SDS011;51319;52.162;5.302;2022-08-19T11:15:56;24.15;;;12.15;;
43998;SDS011;51319;52.162;5.302;2022-08-19T11:18:23;13.13;;;10.60;;
43998;SDS011;51319;52.162;5.302;2022-08-19T11:20:49;13.60;;;11.15;;
43998;SDS011;51319;52.162;5.302;2022-08-19T11:23:15;20.20;;;13.77;;
43998;SDS011;51319;52.162;5.302;2022-08-19T11:25:42;15.60;;;12.50;;
43998;SDS011;51319;52.162;5.302;2022-08-19T11:28:08;20.40;;;14.65;;
43998;SDS011;51319;52.162;5.302;2022-08-19T11:30:36;19.63;;;14.60;;
43998;SDS011;51319;52.162;5.302;2022-08-19T11:33:03;22.35;;;15.10;;
43998;SDS011;51319;52.162;5.302;2022-08-19T11:35:29;19.95;;;14.90;;
43998;SDS011;51319;52.162;5.302;2022-08-19T11:37:56;19.65;;;14.40;;
43998;SDS011;51319;52.162;5.302;2022-08-19T11:40:26;23.25;;;15.60;;
43998;SDS011;51319;52.162;5.302;2022-08-19T11:42:53;27.05;;;15.70;;
43998;SDS011;51319;52.162;5.302;2022-08-19T11:45:27;23.33;;;15.38;;
43998;SDS011;51319;52.162;5.302;2022-08-19T11:47:59;24.25;;;14.48;;
43998;SDS011;51319;52.162;5.302;2022-08-19T11:50:26;19.98;;;13.90;;
43998;SDS011;51319;52.162;5.302;2022-08-19T11:52:56;18.85;;;14.35;;
43998;SDS011;51319;52.162;5.302;2022-08-19T11:55:23;20.65;;;14.48;;
43998;SDS011;51319;52.162;5.302;2022-08-19T11:57:50;23.88;;;16.23;;
43998;SDS011;51319;52.162;5.302;2022-08-19T12:00:16;22.65;;;15.35;;
43998;SDS011;51319;52.162;5.302;2022-08-19T12:02:42;18.80;;;14.57;;
43998;SDS011;51319;52.162;5.302;2022-08-19T12:05:12;31.35;;;16.92;;
43998;SDS011;51319;52.162;5.302;2022-08-19T12:07:40;23.23;;;16.05;;
43998;SDS011;51319;52.162;5.302;2022-08-19T12:10:07;23.42;;;17.00;;
43998;SDS011;51319;52.162;5.302;2022-08-19T12:12:36;22.38;;;16.75;;
43998;SDS011;51319;52.162;5.302;2022-08-19T12:15:24;45.45;;;21.05;;
43998;SDS011;51319;52.162;5.302;2022-08-19T12:17:52;34.70;;;19.52;;
43998;SDS011;51319;52.162;5.302;2022-08-19T12:20:22;28.50;;;18.80;;
43998;SDS011;51319;52.162;5.302;2022-08-19T12:22:49;37.22;;;21.90;;
43998;SDS011;51319;52.162;5.302;2022-08-19T12:25:18;25.60;;;17.17;;
43998;SDS011;51319;52.162;5.302;2022-08-19T12:27:47;24.40;;;16.58;;
43998;SDS011;51319;52.162;5.302;2022-08-19T12:30:23;19.40;;;14.88;;
43998;SDS011;51319;52.162;5.302;2022-08-19T12:32:50;24.23;;;15.50;;
43998;SDS011;51319;52.162;5.302;2022-08-19T12:35:18;19.08;;;15.50;;
43998;SDS011;51319;52.162;5.302;2022-08-19T12:37:48;22.90;;;16.90;;
43998;SDS011;51319;52.162;5.302;2022-08-19T12:40:22;24.10;;;18.35;;
43998;SDS011;51319;52.162;5.302;2022-08-19T12:42:51;24.13;;;17.77;;
43998;SDS011;51319;52.162;5.302;2022-08-19T12:45:19;19.42;;;17.27;;
43998;SDS011;51319;52.162;5.302;2022-08-19T12:47:46;17.60;;;14.88;;
43998;SDS011;51319;52.162;5.302;2022-08-19T12:50:15;15.90;;;14.25;;
43998;SDS011;51319;52.162;5.302;2022-08-19T12:52:41;17.55;;;15.70;;
43998;SDS011;51319;52.162;5.302;2022-08-19T12:55:09;22.98;;;17.13;;
43998;SDS011;51319;52.162;5.302;2022-08-19T12:57:36;25.50;;;17.55;;
43998;SDS011;51319;52.162;5.302;2022-08-19T13:00:07;21.05;;;17.13;;
43998;SDS011;51319;52.162;5.302;2022-08-19T13:02:39;19.48;;;16.80;;
43998;SDS011;51319;52.162;5.302;2022-08-19T13:05:08;25.35;;;17.10;;
43998;SDS011;51319;52.162;5.302;2022-08-19T13:07:38;22.92;;;16.38;;
43998;SDS011;51319;52.162;5.302;2022-08-19T13:10:07;23.88;;;17.40;;
43998;SDS011;51319;52.162;5.302;2022-08-19T13:12:34;19.48;;;16.10;;
43998;SDS011;51319;52.162;5.302;2022-08-19T13:15:00;20.25;;;17.52;;
43998;SDS011;51319;52.162;5.302;2022-08-19T13:17:27;20.38;;;16.58;;
43998;SDS011;51319;52.162;5.302;2022-08-19T13:19:54;29.42;;;19.25;;
43998;SDS011;51319;52.162;5.302;2022-08-19T13:22:20;24.25;;;17.08;;
43998;SDS011;51319;52.162;5.302;2022-08-19T13:24:47;21.70;;;16.33;;
43998;SDS011;51319;52.162;5.302;2022-08-19T13:27:14;18.75;;;15.23;;
43998;SDS011;51319;52.162;5.302;2022-08-19T13:29:41;20.42;;;15.75;;
43998;SDS011;51319;52.162;5.302;2022-08-19T13:32:26;15.80;;;12.77;;
43998;SDS011;51319;52.162;5.302;2022-08-19T13:35:14;17.13;;;13.15;;
43998;SDS011;51319;52.162;5.302;2022-08-19T13:37:42;14.55;;;13.05;;
43998;SDS011;51319;52.162;5.302;2022-08-19T13:40:13;16.98;;;12.15;;
43998;SDS011;51319;52.162;5.302;2022-08-19T13:42:47;14.98;;;11.80;;
43998;SDS011;51319;52.162;5.302;2022-08-19T13:45:17;13.07;;;11.35;;
43998;SDS011;51319;52.162;5.302;2022-08-19T13:47:47;14.32;;;11.27;;
43998;SDS011;51319;52.162;5.302;2022-08-19T13:50:17;11.27;;;10.10;;
43998;SDS011;51319;52.162;5.302;2022-08-19T13:52:46;17.50;;;11.88;;
43998;SDS011;51319;52.162;5.302;2022-08-19T13:55:13;11.77;;;9.90;;
43998;SDS011;51319;52.162;5.302;2022-08-19T13:57:51;18.77;;;9.93;;
43998;SDS011;51319;52.162;5.302;2022-08-19T14:00:18;16.00;;;9.38;;
43998;SDS011;51319;52.162;5.302;2022-08-19T14:02:45;11.45;;;8.60;;
43998;SDS011;51319;52.162;5.302;2022-08-19T14:05:13;13.98;;;9.65;;
43998;SDS011;51319;52.162;5.302;2022-08-19T14:07:41;13.52;;;9.68;;
43998;SDS011;51319;52.162;5.302;2022-08-19T14:10:08;13.20;;;8.82;;
43998;SDS011;51319;52.162;5.302;2022-08-19T14:12:36;12.00;;;8.93;;
43998;SDS011;51319;52.162;5.302;2022-08-19T14:15:04;12.55;;;9.30;;
43998;SDS011;51319;52.162;5.302;2022-08-19T14:17:31;12.57;;;7.90;;
43998;SDS011;51319;52.162;5.302;2022-08-19T14:20:02;10.35;;;7.85;;
43998;SDS011;51319;52.162;5.302;2022-08-19T14:22:37;13.80;;;8.02;;
43998;SDS011;51319;52.162;5.302;2022-08-19T14:25:07;10.38;;;7.55;;
43998;SDS011;51319;52.162;5.302;2022-08-19T14:27:36;13.45;;;8.40;;
43998;SDS011;51319;52.162;5.302;2022-08-19T14:30:04;11.30;;;6.65;;
43998;SDS011;51319;52.162;5.302;2022-08-19T14:32:32;12.57;;;7.25;;
43998;SDS011;51319;52.162;5.302;2022-08-19T14:34:59;12.18;;;7.82;;
43998;SDS011;51319;52.162;5.302;2022-08-19T14:37:28;8.40;;;6.65;;
43998;SDS011;51319;52.162;5.302;2022-08-19T14:39:54;8.73;;;6.85;;
43998;SDS011;51319;52.162;5.302;2022-08-19T14:42:21;11.30;;;6.43;;
43998;SDS011;51319;52.162;5.302;2022-08-19T14:44:47;6.93;;;5.63;;
43998;SDS011;51319;52.162;5.302;2022-08-19T14:47:15;9.82;;;5.45;;
43998;SDS011;51319;52.162;5.302;2022-08-19T14:49:42;7.55;;;5.82;;
43998;SDS011;51319;52.162;5.302;2022-08-19T14:52:13;9.93;;;5.90;;
43998;SDS011;51319;52.162;5.302;2022-08-19T14:54:39;12.85;;;6.13;;
43998;SDS011;51319;52.162;5.302;2022-08-19T14:57:06;9.10;;;6.30;;
43998;SDS011;51319;52.162;5.302;2022-08-19T14:59:34;6.75;;;6.05;;
43998;SDS011;51319;52.162;5.302;2022-08-19T15:02:01;8.70;;;6.10;;